RKTU/CHN METAR and TAF weather

Enter ICAO airport designator
Station Type Date Time Source
RKTU METAR 2019/06/27 08:00 UTC NOAA

RKTU 270800Z 33004KT 9999 BKN040 BKN200 29/22 Q0999


Station Type Date Time Source
RKTU Decoded METAR 2019/06/27 08:00 UTC NOAA

Chongju Ab, Korea, South (RKTU) 36-42N 127-30E 66M
Jun 27, 2019 - 04:00 AM EDT / 2019.06.27 0800 UTC
Wind: from the NNW (330 degrees) at 5 MPH (4 KT):0
Visibility: greater than 7 mile(s):0
Sky conditions: mostly cloudy
Temperature: 84 F (29 C)
Dew Point: 71 F (22 C)
Relative Humidity: 65%
Pressure (altimeter): 29.50 in. Hg (0999 hPa)
ob: RKTU 270800Z 33004KT 9999 BKN040 BKN200 29/22 Q0999
cycle: 8

Station Type Date Time Source
RKTU TAF 2019/06/27 06:06 UTC NOAA

TAF RKTU 270500Z 2706/2812 27006KT 9999 BKN040 TN20/2721Z TX28/2806Z
BECMG 2718/2719 24006KT 4800 BR BKN020
BECMG 2800/2801 8000 NSW BKN030 BKN200
BECMG 2801/2802 9999

Example: see airport list